createdAt,value
2017-09-20T00:02:07.506Z,14.90
2017-09-20T00:04:34.101Z,14.90
2017-09-20T00:07:00.753Z,14.90
2017-09-20T00:09:29.093Z,14.80
2017-09-20T00:11:55.675Z,15.17
2017-09-20T00:14:22.304Z,16.87
2017-09-20T00:16:59.295Z,16.17
2017-09-20T00:19:29.117Z,15.37
2017-09-20T00:21:55.715Z,15.60
2017-09-20T00:24:22.311Z,15.97
2017-09-20T00:26:48.930Z,16.20
2017-09-20T00:29:19.325Z,17.17
2017-09-20T00:31:45.909Z,18.43
2017-09-20T00:34:19.102Z,17.50
2017-09-20T00:36:48.796Z,17.37
2017-09-20T00:39:21.029Z,17.60
2017-09-20T00:41:47.618Z,19.13
2017-09-20T00:44:20.354Z,18.37
2017-09-20T00:46:46.971Z,17.30
2017-09-20T00:49:13.549Z,18.40
2017-09-20T00:51:40.198Z,16.37
2017-09-20T00:54:06.781Z,19.03
2017-09-20T00:56:33.373Z,17.60
2017-09-20T00:58:59.996Z,17.47
2017-09-20T01:01:26.601Z,17.23
2017-09-20T01:03:53.188Z,16.83
2017-09-20T01:06:19.784Z,16.47
2017-09-20T01:08:46.365Z,17.83
2017-09-20T01:11:12.957Z,15.80
2017-09-20T01:13:39.688Z,16.50
2017-09-20T01:16:06.277Z,17.30
2017-09-20T01:18:32.855Z,17.00
2017-09-20T01:21:05.388Z,16.33
2017-09-20T01:23:35.725Z,16.97
2017-09-20T01:26:02.310Z,17.77
2017-09-20T01:28:28.905Z,16.27
2017-09-20T01:30:55.485Z,16.53
2017-09-20T01:33:22.073Z,18.07
2017-09-20T01:35:48.677Z,16.70
2017-09-20T01:38:15.276Z,17.97
2017-09-20T01:40:41.875Z,17.70
2017-09-20T01:43:08.469Z,16.83
2017-09-20T01:45:35.078Z,15.23
2017-09-20T01:48:01.669Z,16.47
2017-09-20T01:50:28.277Z,16.83
2017-09-20T01:52:54.860Z,16.60
2017-09-20T01:55:21.462Z,17.23
2017-09-20T01:57:48.054Z,18.30
2017-09-20T02:00:14.641Z,17.97
2017-09-20T02:02:41.221Z,18.33
2017-09-20T02:05:07.821Z,19.10
2017-09-20T02:07:34.401Z,19.60
2017-09-20T02:10:00.989Z,19.70
2017-09-20T02:12:27.610Z,19.83
2017-09-20T02:14:54.194Z,20.20
2017-09-20T02:17:20.773Z,21.00
2017-09-20T02:19:47.388Z,19.50
2017-09-20T02:22:13.968Z,19.73
2017-09-20T02:24:40.557Z,19.40
2017-09-20T02:27:07.153Z,19.37
2017-09-20T02:29:33.782Z,18.87
2017-09-20T02:32:00.365Z,17.90
2017-09-20T02:34:26.969Z,19.13
2017-09-20T02:36:53.554Z,18.23
2017-09-20T02:39:20.136Z,17.93
2017-09-20T02:41:46.738Z,18.80
2017-09-20T02:44:13.324Z,19.80
2017-09-20T02:46:39.960Z,20.10
2017-09-20T02:49:06.557Z,18.97
2017-09-20T02:51:33.150Z,18.60
2017-09-20T02:53:59.729Z,18.43
2017-09-20T02:56:26.320Z,19.67
2017-09-20T02:58:52.901Z,19.80
2017-09-20T03:01:19.493Z,19.50
2017-09-20T03:03:46.093Z,19.70
2017-09-20T03:06:12.676Z,19.70
2017-09-20T03:08:39.273Z,19.10
2017-09-20T03:11:05.874Z,18.97
2017-09-20T03:13:32.545Z,19.40
2017-09-20T03:15:59.125Z,20.53
2017-09-20T03:18:25.724Z,20.13
2017-09-20T03:20:52.310Z,18.37
2017-09-20T03:23:18.917Z,20.43
2017-09-20T03:25:45.514Z,19.70
2017-09-20T03:28:12.109Z,19.27
2017-09-20T03:30:38.710Z,19.97
2017-09-20T03:33:05.321Z,18.57
2017-09-20T03:35:31.902Z,18.97
2017-09-20T03:37:58.491Z,18.73
2017-09-20T03:40:25.114Z,19.30
2017-09-20T03:42:51.699Z,18.80
2017-09-20T03:45:18.273Z,19.10
2017-09-20T03:47:44.872Z,18.57
2017-09-20T03:50:11.461Z,18.90
2017-09-20T03:52:38.046Z,17.80
2017-09-20T03:55:04.644Z,17.83
2017-09-20T03:57:31.223Z,18.30
2017-09-20T03:59:57.826Z,17.43
2017-09-20T04:02:24.421Z,18.27
2017-09-20T04:04:51.075Z,17.80
2017-09-20T04:07:17.641Z,18.07
2017-09-20T04:09:44.261Z,19.00
2017-09-20T04:12:10.842Z,19.53
2017-09-20T04:14:37.422Z,20.83
2017-09-20T04:17:04.023Z,21.93
2017-09-20T04:19:30.616Z,18.60
2017-09-20T04:21:57.198Z,18.20
2017-09-20T04:24:23.802Z,18.37
2017-09-20T04:26:50.393Z,19.00
2017-09-20T04:29:17.006Z,19.20
2017-09-20T04:31:43.643Z,19.10
2017-09-20T04:34:10.236Z,19.57
2017-09-20T04:36:36.817Z,20.43
2017-09-20T04:39:03.439Z,19.20
2017-09-20T04:41:30.011Z,19.87
2017-09-20T04:43:56.596Z,19.33
2017-09-20T04:46:23.202Z,17.90
2017-09-20T04:48:49.781Z,18.90
2017-09-20T04:51:16.365Z,19.83
2017-09-20T04:53:42.961Z,19.47
2017-09-20T04:56:09.553Z,18.77
2017-09-20T04:58:36.133Z,19.73
2017-09-20T05:01:02.738Z,20.57
2017-09-20T05:03:29.329Z,21.07
2017-09-20T05:05:55.918Z,21.07
2017-09-20T05:08:22.506Z,19.47
2017-09-20T05:10:49.089Z,21.50
2017-09-20T05:13:15.689Z,21.10
2017-09-20T05:15:42.317Z,21.20
2017-09-20T05:18:08.889Z,22.13
2017-09-20T05:20:35.481Z,22.33
2017-09-20T05:23:02.073Z,23.90
2017-09-20T05:25:28.654Z,23.57
2017-09-20T05:27:55.275Z,24.10
2017-09-20T05:30:21.868Z,22.27
2017-09-20T05:32:48.473Z,24.00
2017-09-20T05:35:15.084Z,21.53
2017-09-20T05:37:41.690Z,19.90
2017-09-20T05:40:08.273Z,23.30
2017-09-20T05:42:34.862Z,25.03
2017-09-20T05:45:01.478Z,26.23
2017-09-20T05:47:28.065Z,24.50
2017-09-20T05:49:54.696Z,23.90
2017-09-20T05:52:21.281Z,27.20
2017-09-20T05:54:47.861Z,26.97
2017-09-20T05:57:14.449Z,27.70
2017-09-20T05:59:41.051Z,27.80
2017-09-20T06:02:07.660Z,27.40
2017-09-20T06:04:34.228Z,26.17
2017-09-20T06:07:00.859Z,27.83
2017-09-20T06:09:27.441Z,27.07
2017-09-20T06:11:54.085Z,27.40
2017-09-20T06:14:20.685Z,29.63
2017-09-20T06:16:47.269Z,26.10
2017-09-20T06:19:13.851Z,25.53
2017-09-20T06:21:40.444Z,25.47
2017-09-20T06:24:07.578Z,29.10
2017-09-20T06:26:35.993Z,28.03
2017-09-20T06:29:02.998Z,28.30
2017-09-20T06:31:29.903Z,27.60
2017-09-20T06:33:56.570Z,27.83
2017-09-20T06:36:23.170Z,28.80
2017-09-20T06:38:49.760Z,29.30
2017-09-20T06:41:16.333Z,29.70
2017-09-20T06:43:42.924Z,30.13
2017-09-20T06:46:09.536Z,28.00
2017-09-20T06:48:36.108Z,28.90
2017-09-20T06:51:02.807Z,26.50
2017-09-20T06:53:29.384Z,27.97
2017-09-20T06:55:55.965Z,28.60
2017-09-20T06:58:22.558Z,29.83
2017-09-20T07:00:49.137Z,27.97
2017-09-20T07:03:15.729Z,29.50
2017-09-20T07:05:42.325Z,29.70
2017-09-20T07:08:08.968Z,30.03
2017-09-20T07:10:35.549Z,29.83
2017-09-20T07:13:02.147Z,31.33
2017-09-20T07:15:28.796Z,29.73
2017-09-20T07:17:55.392Z,30.63
2017-09-20T07:20:21.983Z,31.70
2017-09-20T07:22:48.577Z,31.90
2017-09-20T07:25:15.189Z,30.60
2017-09-20T07:27:41.893Z,30.23
2017-09-20T07:30:08.461Z,29.53
2017-09-20T07:32:35.049Z,29.70
2017-09-20T07:35:01.650Z,31.00
2017-09-20T07:37:28.233Z,31.20
2017-09-20T07:39:54.817Z,29.93
2017-09-20T07:42:21.410Z,29.73
2017-09-20T07:44:47.994Z,30.27
2017-09-20T07:47:14.578Z,30.57
2017-09-20T07:49:41.172Z,31.17
2017-09-20T07:52:07.753Z,31.27
2017-09-20T07:54:34.333Z,29.20
2017-09-20T07:57:00.955Z,32.27
2017-09-20T07:59:27.550Z,31.63
2017-09-20T08:01:54.168Z,32.83
2017-09-20T08:04:20.778Z,30.57
2017-09-20T08:06:47.360Z,30.70
2017-09-20T08:09:13.974Z,30.53
2017-09-20T08:11:40.576Z,31.83
2017-09-20T08:14:07.171Z,28.57
2017-09-20T08:16:33.746Z,29.37
2017-09-20T08:19:00.349Z,28.67
2017-09-20T08:21:26.965Z,30.50
2017-09-20T08:23:53.556Z,31.50
2017-09-20T08:26:20.150Z,31.00
2017-09-20T08:28:46.733Z,32.67
2017-09-20T08:31:13.316Z,33.03
2017-09-20T08:33:39.913Z,32.60
2017-09-20T08:36:06.500Z,32.10
2017-09-20T08:38:33.179Z,33.57
2017-09-20T08:40:59.776Z,35.83
2017-09-20T08:43:26.361Z,34.37
2017-09-20T08:45:52.951Z,33.10
2017-09-20T08:48:19.577Z,36.40
2017-09-20T08:50:46.955Z,32.80
2017-09-20T08:53:13.537Z,32.20
2017-09-20T08:55:40.141Z,31.93
2017-09-20T08:58:06.742Z,32.00
2017-09-20T09:00:33.345Z,31.80
2017-09-20T09:02:59.973Z,30.23
2017-09-20T09:05:26.557Z,32.90
2017-09-20T09:07:53.146Z,32.90
2017-09-20T09:10:19.786Z,33.20
2017-09-20T09:12:46.357Z,33.10
2017-09-20T09:15:13.006Z,34.57
2017-09-20T09:17:39.689Z,33.50
2017-09-20T09:20:06.293Z,34.40
2017-09-20T09:22:32.913Z,34.13
2017-09-20T09:24:59.530Z,36.53
2017-09-20T09:27:26.753Z,33.70
2017-09-20T09:29:53.343Z,32.40
2017-09-20T09:32:20.034Z,38.97
2017-09-20T09:34:46.653Z,34.77
2017-09-20T09:37:19.177Z,38.07
2017-09-20T09:39:45.771Z,35.33
2017-09-20T09:42:12.353Z,32.77
2017-09-20T09:44:38.963Z,31.67
2017-09-20T09:47:05.541Z,34.93
2017-09-20T09:49:32.133Z,33.27
2017-09-20T09:51:58.723Z,33.60
2017-09-20T09:54:25.321Z,34.30
2017-09-20T09:56:51.907Z,32.63
2017-09-20T09:59:18.517Z,34.87
2017-09-20T10:01:45.105Z,35.20
2017-09-20T10:04:11.702Z,32.63
2017-09-20T10:06:38.309Z,34.77
2017-09-20T10:09:12.474Z,31.57
2017-09-20T10:11:39.071Z,31.57
2017-09-20T10:14:05.651Z,32.03
2017-09-20T10:16:32.234Z,31.50
2017-09-20T10:18:58.853Z,30.67
2017-09-20T10:21:25.437Z,26.30
2017-09-20T10:23:52.066Z,30.03
2017-09-20T10:26:18.679Z,30.13
2017-09-20T10:28:45.262Z,27.10
2017-09-20T10:31:11.877Z,25.40
2017-09-20T10:33:38.457Z,27.73
2017-09-20T10:36:05.037Z,27.63
2017-09-20T10:38:31.634Z,25.10
2017-09-20T10:40:58.242Z,26.30
2017-09-20T10:43:24.830Z,25.13
2017-09-20T10:45:51.411Z,27.00
2017-09-20T10:48:18.013Z,28.80
2017-09-20T10:50:44.598Z,27.57
2017-09-20T10:53:11.202Z,28.60
2017-09-20T10:55:37.830Z,27.43
2017-09-20T10:58:04.413Z,27.37
2017-09-20T11:00:30.997Z,28.07
2017-09-20T11:02:57.592Z,25.47
2017-09-20T11:05:24.173Z,24.87
2017-09-20T11:07:50.861Z,22.37
2017-09-20T11:10:17.441Z,22.80
2017-09-20T11:12:44.025Z,22.77
2017-09-20T11:15:10.614Z,20.30
2017-09-20T11:17:37.213Z,19.33
2017-09-20T11:20:03.798Z,16.50
2017-09-20T11:22:30.380Z,13.53
2017-09-20T11:24:56.985Z,11.80
2017-09-20T11:27:23.605Z,12.83
2017-09-20T11:29:50.189Z,12.67
2017-09-20T11:32:16.788Z,11.10
2017-09-20T11:34:43.377Z,12.87
2017-09-20T11:37:09.961Z,10.83
2017-09-20T11:39:36.553Z,10.57
2017-09-20T11:42:03.136Z,11.17
2017-09-20T11:44:29.745Z,10.40
2017-09-20T11:46:56.342Z,9.40
2017-09-20T11:49:22.933Z,9.57
2017-09-20T11:51:49.538Z,8.47
2017-09-20T11:54:16.132Z,9.53
2017-09-20T11:56:42.745Z,10.60
2017-09-20T11:59:09.318Z,9.73
2017-09-20T12:01:35.912Z,8.70
2017-09-20T12:04:02.510Z,8.70
2017-09-20T12:06:29.089Z,8.60
2017-09-20T12:08:55.694Z,9.20
2017-09-20T12:11:22.286Z,9.43
2017-09-20T12:13:49.229Z,8.67
2017-09-20T12:16:15.910Z,8.33
2017-09-20T12:18:42.456Z,8.00
2017-09-20T12:21:09.034Z,7.70
2017-09-20T12:23:35.644Z,8.37
2017-09-20T12:26:02.210Z,7.87
2017-09-20T12:28:28.794Z,7.97
2017-09-20T12:30:55.385Z,8.73
2017-09-20T12:33:21.961Z,8.30
2017-09-20T12:35:48.536Z,7.80
2017-09-20T12:38:15.129Z,7.30
2017-09-20T12:40:41.709Z,8.10
2017-09-20T12:43:08.325Z,7.67
2017-09-20T12:45:34.896Z,8.17
2017-09-20T12:48:01.477Z,6.77
2017-09-20T12:50:28.058Z,6.27
2017-09-20T12:52:54.641Z,6.63
2017-09-20T12:55:21.215Z,6.73
2017-09-20T12:57:47.781Z,6.00
2017-09-20T13:00:14.376Z,5.90
2017-09-20T13:02:40.945Z,6.53
2017-09-20T13:05:07.516Z,6.37
2017-09-20T13:07:34.165Z,6.47
2017-09-20T13:10:00.737Z,5.50
2017-09-20T13:12:27.309Z,5.80
2017-09-20T13:14:53.983Z,5.30
2017-09-20T13:17:20.556Z,5.57
2017-09-20T13:19:47.134Z,4.70
2017-09-20T13:22:13.739Z,4.37
2017-09-20T13:24:40.298Z,5.03
2017-09-20T13:27:06.864Z,5.93
2017-09-20T13:29:33.449Z,5.00
2017-09-20T13:32:00.030Z,5.33
2017-09-20T13:34:26.601Z,4.17
2017-09-20T13:36:53.203Z,4.70
2017-09-20T13:39:19.781Z,4.70
2017-09-20T13:41:46.424Z,4.30
2017-09-20T13:44:12.997Z,4.40
2017-09-20T13:46:39.586Z,4.57
2017-09-20T13:49:06.158Z,4.00
2017-09-20T13:51:32.802Z,4.13
2017-09-20T13:53:59.356Z,4.17
2017-09-20T13:56:25.936Z,3.63
2017-09-20T13:58:52.526Z,4.20
2017-09-20T14:01:19.099Z,3.60
2017-09-20T14:03:45.677Z,3.87
2017-09-20T14:06:12.410Z,3.47
2017-09-20T14:08:38.981Z,3.30
2017-09-20T14:11:06.760Z,2.70
2017-09-20T14:13:33.345Z,2.57
2017-09-20T14:15:59.981Z,2.80
2017-09-20T14:18:26.553Z,2.93
2017-09-20T14:20:53.244Z,3.30
2017-09-20T14:23:29.756Z,2.80
2017-09-20T14:25:59.617Z,3.20
2017-09-20T14:28:26.193Z,2.50
2017-09-20T14:30:52.785Z,2.70
2017-09-20T14:33:19.364Z,2.40
2017-09-20T14:35:45.945Z,2.57
2017-09-20T14:38:12.517Z,2.30
2017-09-20T14:40:39.105Z,2.47
2017-09-20T14:43:05.681Z,2.20
2017-09-20T14:45:32.253Z,2.10
2017-09-20T14:47:58.847Z,2.40
2017-09-20T14:50:25.413Z,2.47
2017-09-20T14:52:51.994Z,2.70
2017-09-20T14:55:18.625Z,3.13
2017-09-20T14:57:45.206Z,3.20
2017-09-20T15:00:18.130Z,3.60
2017-09-20T15:02:44.680Z,3.17
2017-09-20T15:05:11.257Z,3.70
2017-09-20T15:07:37.863Z,3.70
2017-09-20T15:10:04.432Z,4.57
2017-09-20T15:12:31.005Z,3.87
2017-09-20T15:14:57.584Z,3.50
2017-09-20T15:17:24.183Z,3.50
2017-09-20T15:19:50.797Z,3.30
2017-09-20T15:22:17.385Z,3.40
2017-09-20T15:24:43.962Z,4.07
2017-09-20T15:27:10.528Z,4.00
2017-09-20T15:29:37.130Z,3.70
2017-09-20T15:32:03.717Z,3.57
2017-09-20T15:34:32.103Z,3.83
2017-09-20T15:36:58.709Z,4.07
2017-09-20T15:39:25.282Z,3.97
2017-09-20T15:41:51.929Z,3.70
2017-09-20T15:44:18.513Z,3.90
2017-09-20T15:46:45.232Z,4.13
2017-09-20T15:49:11.866Z,3.40
2017-09-20T15:51:38.461Z,3.70
2017-09-20T15:54:05.032Z,3.53
2017-09-20T15:56:31.613Z,3.63
2017-09-20T15:58:58.209Z,3.20
2017-09-20T16:01:24.796Z,3.40
2017-09-20T16:03:51.357Z,4.00
2017-09-20T16:06:17.977Z,3.50
2017-09-20T16:08:44.554Z,3.50
2017-09-20T16:11:11.126Z,2.93
2017-09-20T16:13:37.728Z,3.30
2017-09-20T16:16:04.292Z,3.10
2017-09-20T16:18:30.861Z,3.40
2017-09-20T16:20:57.454Z,3.20
2017-09-20T16:23:24.029Z,3.30
2017-09-20T16:25:50.613Z,3.47
2017-09-20T16:28:17.197Z,4.00
2017-09-20T16:30:43.799Z,3.60
2017-09-20T16:33:10.412Z,3.40
2017-09-20T16:35:47.373Z,3.20
2017-09-20T16:38:13.973Z,3.80
2017-09-20T16:40:40.565Z,3.63
2017-09-20T16:43:07.150Z,3.37
2017-09-20T16:45:33.729Z,3.90
2017-09-20T16:48:00.306Z,3.57
2017-09-20T16:50:26.897Z,3.70
2017-09-20T16:52:53.478Z,3.30
2017-09-20T16:55:20.081Z,4.43
2017-09-20T16:57:46.727Z,6.00
2017-09-20T17:00:13.314Z,4.10
2017-09-20T17:02:39.902Z,3.93
2017-09-20T17:05:06.492Z,3.70
2017-09-20T17:07:33.072Z,3.87
2017-09-20T17:09:59.653Z,3.60
2017-09-20T17:12:26.245Z,3.40
2017-09-20T17:14:52.853Z,3.60
2017-09-20T17:17:19.430Z,3.73
2017-09-20T17:19:46.025Z,3.80
2017-09-20T17:22:12.626Z,4.10
2017-09-20T17:24:39.204Z,3.70
2017-09-20T17:27:05.788Z,3.40
2017-09-20T17:29:32.394Z,3.70
2017-09-20T17:31:58.992Z,3.67
2017-09-20T17:34:27.290Z,3.77
2017-09-20T17:36:56.822Z,3.70
2017-09-20T17:39:23.446Z,3.87
2017-09-20T17:41:50.037Z,3.70
2017-09-20T17:44:16.649Z,4.43
2017-09-20T17:46:43.276Z,4.63
2017-09-20T17:49:13.249Z,5.50
2017-09-20T17:51:39.826Z,4.97
2017-09-20T17:54:06.409Z,5.07
2017-09-20T17:56:33.003Z,4.50
2017-09-20T17:58:59.578Z,4.80
2017-09-20T18:01:26.175Z,5.77
2017-09-20T18:03:52.769Z,5.33
2017-09-20T18:06:19.389Z,5.67
2017-09-20T18:08:45.958Z,4.10
2017-09-20T18:11:12.561Z,3.90
2017-09-20T18:13:39.137Z,4.50
2017-09-20T18:16:06.542Z,3.93
2017-09-20T18:18:33.129Z,4.20
2017-09-20T18:20:59.701Z,4.20
2017-09-20T18:23:26.273Z,4.10
2017-09-20T18:25:52.881Z,3.83
2017-09-20T18:28:19.457Z,4.60
2017-09-20T18:30:46.654Z,4.20
2017-09-20T18:33:13.243Z,4.60
2017-09-20T18:35:39.821Z,4.30
2017-09-20T18:38:06.404Z,4.17
2017-09-20T18:40:32.993Z,4.00
2017-09-20T18:42:59.570Z,4.57
2017-09-20T18:45:26.151Z,4.17
2017-09-20T18:47:52.745Z,4.47
2017-09-20T18:50:19.318Z,4.60
2017-09-20T18:52:45.898Z,4.37
2017-09-20T18:55:12.506Z,4.30
2017-09-20T18:57:39.080Z,4.50
2017-09-20T19:00:05.659Z,4.30
2017-09-20T19:02:32.250Z,4.37
2017-09-20T19:04:58.820Z,4.60
2017-09-20T19:07:25.405Z,4.10
2017-09-20T19:09:51.997Z,4.37
2017-09-20T19:12:18.577Z,5.00
2017-09-20T19:14:45.160Z,4.53
2017-09-20T19:17:11.749Z,7.00
2017-09-20T19:19:38.333Z,7.93
2017-09-20T19:22:04.933Z,5.50
2017-09-20T19:24:31.532Z,5.40
2017-09-20T19:26:58.113Z,4.73
2017-09-20T19:29:24.738Z,5.00
2017-09-20T19:31:51.367Z,5.30
2017-09-20T19:34:17.945Z,4.97
2017-09-20T19:36:46.119Z,5.10
2017-09-20T19:39:12.699Z,5.30
2017-09-20T19:41:39.276Z,5.70
2017-09-20T19:44:05.857Z,6.20
2017-09-20T19:46:32.469Z,5.70
2017-09-20T19:48:59.045Z,5.50
2017-09-20T19:51:25.621Z,6.53
2017-09-20T19:53:52.228Z,5.83
2017-09-20T19:56:18.801Z,5.20
2017-09-20T19:58:45.397Z,5.50
2017-09-20T20:01:11.989Z,5.13
2017-09-20T20:03:38.568Z,5.17
2017-09-20T20:06:05.193Z,5.10
2017-09-20T20:08:31.788Z,5.50
2017-09-20T20:10:58.373Z,10.70
2017-09-20T20:13:24.961Z,9.60
2017-09-20T20:15:51.586Z,6.50
2017-09-20T20:18:18.166Z,7.10
2017-09-20T20:20:44.741Z,6.70
2017-09-20T20:23:11.330Z,5.90
2017-09-20T20:25:37.913Z,6.67
2017-09-20T20:28:04.505Z,6.00
2017-09-20T20:30:31.105Z,6.10
2017-09-20T20:32:57.686Z,6.03
2017-09-20T20:35:24.267Z,6.17
2017-09-20T20:37:50.882Z,6.13
2017-09-20T20:40:17.461Z,6.57
2017-09-20T20:42:44.057Z,6.00
2017-09-20T20:45:10.630Z,6.30
2017-09-20T20:47:37.202Z,5.97
2017-09-20T20:50:03.786Z,6.57
2017-09-20T20:52:30.372Z,6.10
2017-09-20T20:54:56.981Z,6.40
2017-09-20T20:57:23.561Z,6.03
2017-09-20T20:59:50.153Z,6.60
2017-09-20T21:02:16.734Z,7.07
2017-09-20T21:04:43.305Z,6.27
2017-09-20T21:07:09.897Z,6.97
2017-09-20T21:09:36.497Z,6.60
2017-09-20T21:12:03.072Z,6.93
2017-09-20T21:14:29.665Z,7.07
2017-09-20T21:16:56.245Z,6.80
2017-09-20T21:19:22.840Z,7.20
2017-09-20T21:21:49.421Z,6.87
2017-09-20T21:24:16.029Z,7.57
2017-09-20T21:26:42.613Z,6.80
2017-09-20T21:29:09.196Z,7.20
2017-09-20T21:31:35.773Z,6.70
2017-09-20T21:34:02.349Z,6.40
2017-09-20T21:36:28.995Z,6.67
2017-09-20T21:38:55.552Z,7.30
2017-09-20T21:41:22.137Z,7.17
2017-09-20T21:43:48.721Z,6.93
2017-09-20T21:46:15.301Z,7.33
2017-09-20T21:48:41.945Z,7.43
2017-09-20T21:51:08.525Z,7.03
2017-09-20T21:53:35.148Z,7.10
2017-09-20T21:56:01.729Z,7.40
2017-09-20T21:58:28.318Z,7.70
2017-09-20T22:00:54.905Z,6.60
2017-09-20T22:03:21.502Z,6.60
2017-09-20T22:05:48.097Z,6.87
2017-09-20T22:08:14.685Z,7.83
2017-09-20T22:10:41.302Z,7.30
2017-09-20T22:13:07.943Z,7.37
2017-09-20T22:15:40.512Z,7.30
2017-09-20T22:18:12.953Z,7.37
2017-09-20T22:20:45.489Z,7.33
2017-09-20T22:23:17.939Z,7.50
2017-09-20T22:25:50.345Z,8.03
2017-09-20T22:28:16.921Z,7.83
2017-09-20T22:30:43.513Z,8.30
2017-09-20T22:33:10.089Z,8.10
2017-09-20T22:35:36.674Z,7.50
2017-09-20T22:38:03.272Z,7.20
2017-09-20T22:40:29.850Z,7.97
2017-09-20T22:42:56.477Z,7.80
2017-09-20T22:45:23.097Z,7.67
2017-09-20T22:47:49.768Z,7.67
2017-09-20T22:50:16.333Z,8.90
2017-09-20T22:52:42.937Z,8.63
2017-09-20T22:55:09.517Z,8.13
2017-09-20T22:57:36.110Z,8.67
2017-09-20T23:00:02.713Z,8.13
2017-09-20T23:02:33.132Z,8.17
2017-09-20T23:04:59.713Z,8.33
2017-09-20T23:07:26.321Z,8.10
2017-09-20T23:09:52.916Z,7.90
2017-09-20T23:12:19.490Z,8.20
2017-09-20T23:14:46.076Z,7.80
2017-09-20T23:17:12.656Z,7.30
2017-09-20T23:19:39.239Z,7.60
2017-09-20T23:22:05.822Z,7.90
2017-09-20T23:24:32.435Z,7.73
2017-09-20T23:26:59.049Z,8.00
2017-09-20T23:29:25.652Z,7.60
2017-09-20T23:31:52.261Z,7.63
2017-09-20T23:34:18.821Z,7.93
2017-09-20T23:36:45.437Z,7.93
2017-09-20T23:39:12.021Z,8.20
2017-09-20T23:41:38.620Z,7.93
2017-09-20T23:44:05.208Z,8.10
2017-09-20T23:46:31.793Z,7.20
2017-09-20T23:48:58.378Z,7.50
2017-09-20T23:51:25.008Z,7.67
2017-09-20T23:53:51.575Z,7.63
2017-09-20T23:56:18.166Z,7.77
2017-09-20T23:58:44.782Z,7.80
